Time;durP1;ratioP1;P1;durP2;ratioP2;P2;SDS_P1;SDS_P2;PMS_P1;PMS_P2;Temp;Humidity;BMP_temperature;BMP_pressure;BME280_temperature;BME280_humidity;BME280_pressure;Samples;Min_cycle;Max_cycle;Signal;HPM_P1;HPM_P2
2021/03/25 00:04:07;;;;;;;37.17;24.67;;;7.40;82.40;;;;;;5155404;27;20292;-68
2021/03/25 00:06:37;;;;;;;33.27;26.17;;;7.40;82.30;;;;;;5154895;27;20348;-68
2021/03/25 00:09:09;;;;;;;35.37;23.30;;;7.40;82.40;;;;;;5155357;27;20300;-67
2021/03/25 00:11:35;;;;;;;37.85;25.75;;;7.40;82.50;;;;;;5155736;27;20768;-68
2021/03/25 00:14:01;;;;;;;33.43;25.27;;;7.30;82.40;;;;;;5154704;27;20099;-67
2021/03/25 00:16:27;;;;;;;33.60;24.77;;;7.30;82.50;;;;;;5155475;27;20690;-67
2021/03/25 00:18:52;;;;;;;35.33;25.53;;;7.30;82.50;;;;;;5155367;27;20126;-68
2021/03/25 00:21:18;;;;;;;40.47;26.23;;;7.30;82.70;;;;;;5154666;27;20521;-67
2021/03/25 00:23:44;;;;;;;35.37;25.27;;;7.20;82.70;;;;;;5154995;27;20057;-67
2021/03/25 00:26:09;;;;;;;36.13;25.93;;;7.20;82.80;;;;;;5154999;27;20107;-68
2021/03/25 00:28:35;;;;;;;36.73;25.93;;;7.20;82.90;;;;;;5154672;27;20403;-68
2021/03/25 00:31:00;;;;;;;36.10;27.13;;;7.20;83.00;;;;;;5154343;27;20051;-68
2021/03/25 00:33:26;;;;;;;38.00;26.03;;;7.20;83.10;;;;;;5154902;27;20062;-68
2021/03/25 00:35:52;;;;;;;36.50;26.33;;;7.10;83.20;;;;;;5154820;27;20042;-68
2021/03/25 00:38:18;;;;;;;35.33;26.87;;;7.10;83.30;;;;;;5154458;27;20487;-68
2021/03/25 00:40:50;;;;;;;32.67;25.83;;;7.10;83.40;;;;;;5154190;27;20626;-68
2021/03/25 00:43:19;;;;;;;42.95;27.88;;;7.00;83.40;;;;;;5154761;27;20303;-68
2021/03/25 00:45:47;;;;;;;36.33;27.20;;;7.00;83.40;;;;;;5154295;27;20511;-68
2021/03/25 00:48:13;;;;;;;40.70;28.07;;;7.00;83.60;;;;;;5154154;27;20299;-68
2021/03/25 00:50:42;;;;;;;40.87;29.77;;;6.90;83.70;;;;;;5154746;27;20647;-68
2021/03/25 00:53:10;;;;;;;40.17;28.07;;;6.90;83.70;;;;;;5154305;27;20292;-68
2021/03/25 00:55:36;;;;;;;40.23;27.23;;;6.90;83.90;;;;;;5154104;27;20324;-68
2021/03/25 00:58:02;;;;;;;34.37;26.30;;;6.90;83.90;;;;;;5154070;27;20388;-68
2021/03/25 01:00:35;;;;;;;37.57;28.03;;;6.90;84.00;;;;;;5154713;27;20336;-68
2021/03/25 01:03:02;;;;;;;42.23;29.33;;;6.80;84.20;;;;;;5153967;27;20407;-68
2021/03/25 01:05:29;;;;;;;37.03;27.40;;;6.80;84.50;;;;;;5154061;27;20316;-68
2021/03/25 01:07:56;;;;;;;40.43;30.10;;;6.80;84.20;;;;;;5154287;27;20318;-68
2021/03/25 01:10:29;;;;;;;39.63;28.60;;;6.70;84.20;;;;;;5153587;27;20304;-68
2021/03/25 01:12:56;;;;;;;38.17;27.57;;;6.70;84.40;;;;;;5154137;27;20379;-68
2021/03/25 01:15:26;;;;;;;43.67;28.47;;;6.60;84.50;;;;;;5153941;27;20351;-68
2021/03/25 01:17:55;;;;;;;45.10;28.83;;;6.60;84.80;;;;;;5153506;27;20851;-68
2021/03/25 01:20:28;;;;;;;41.33;27.93;;;6.60;85.00;;;;;;5153703;27;20791;-68
2021/03/25 01:22:54;;;;;;;42.30;29.20;;;6.60;85.10;;;;;;5153334;27;20352;-68
2021/03/25 01:25:21;;;;;;;42.17;30.10;;;6.60;85.00;;;;;;5153985;27;20308;-68
2021/03/25 01:27:47;;;;;;;36.17;29.23;;;6.60;85.00;;;;;;5153745;27;20099;-68
2021/03/25 01:30:14;;;;;;;43.40;30.57;;;6.60;85.20;;;;;;5153294;27;20296;-68
2021/03/25 01:32:40;;;;;;;42.73;27.67;;;6.60;85.20;;;;;;5153777;27;20320;-68
2021/03/25 01:35:14;;;;;;;41.30;29.20;;;6.60;85.30;;;;;;5153298;27;20331;-68
2021/03/25 01:37:42;;;;;;;40.93;30.07;;;6.60;85.20;;;;;;5153246;27;20047;-68
2021/03/25 01:40:31;;;;;;;44.63;29.13;;;6.60;85.30;;;;;;5153357;27;20804;-68
2021/03/25 01:43:20;;;;;;;38.67;27.30;;;6.60;85.50;;;;;;5152095;27;20307;-67
2021/03/25 01:45:54;;;;;;;41.03;29.37;;;6.60;85.50;;;;;;5152865;27;20417;-68
2021/03/25 01:48:25;;;;;;;38.60;28.27;;;6.70;85.60;;;;;;5153088;27;20832;-68
2021/03/25 01:50:51;;;;;;;41.83;30.90;;;6.60;85.50;;;;;;5153084;27;20296;-68
2021/03/25 01:53:33;;;;;;;39.10;30.03;;;6.70;85.60;;;;;;5153447;27;20352;-67
2021/03/25 01:56:32;;;;;;;45.03;30.90;;;6.70;85.50;;;;;;5153065;27;20796;-68
2021/03/25 01:59:23;;;;;;;48.03;30.73;;;6.70;85.50;;;;;;5152924;27;20303;-68
2021/03/25 02:01:54;;;;;;;43.10;29.77;;;6.70;85.50;;;;;;5152933;27;20773;-68
2021/03/25 02:04:22;;;;;;;43.20;30.48;;;6.70;85.50;;;;;;5153146;27;20303;-67
2021/03/25 02:06:59;;;;;;;43.20;29.17;;;6.70;85.50;;;;;;5152405;27;20054;-68
2021/03/25 02:09:53;;;;;;;49.03;31.43;;;6.70;85.50;;;;;;5153077;27;20379;-68
2021/03/25 02:12:31;;;;;;;44.27;30.53;;;6.70;85.60;;;;;;5152625;27;20319;-68
2021/03/25 02:15:01;;;;;;;35.40;26.20;;;6.70;85.60;;;;;;5153011;27;20288;-68
2021/03/25 02:17:33;;;;;;;49.63;31.73;;;6.70;85.60;;;;;;5153550;27;20292;-68
2021/03/25 02:20:29;;;;;;;43.72;31.85;;;6.70;85.60;;;;;;5152570;27;20306;-68
2021/03/25 02:23:22;;;;;;;41.93;28.97;;;6.80;85.60;;;;;;5152760;27;20055;-67
2021/03/25 02:26:17;;;;;;;43.80;30.97;;;6.80;85.60;;;;;;5152779;27;20871;-68
2021/03/25 02:29:16;;;;;;;46.70;31.83;;;6.70;85.50;;;;;;5153095;27;20432;-67
2021/03/25 02:31:47;;;;;;;44.70;29.83;;;6.70;85.50;;;;;;5139011;27;20303;-67
2021/03/25 02:34:20;;;;;;;45.13;29.77;;;6.70;85.50;;;;;;5152705;27;20300;-67
2021/03/25 02:36:58;;;;;;;40.97;28.23;;;6.70;85.50;;;;;;5152680;27;20296;-67
2021/03/25 02:39:30;;;;;;;47.70;31.80;;;6.70;85.40;;;;;;5152839;27;20292;-67
2021/03/25 02:42:00;;;;;;;46.13;30.87;;;6.70;85.50;;;;;;5152269;27;20303;-67
2021/03/25 02:44:31;;;;;;;42.07;31.00;;;6.70;85.50;;;;;;5152558;27;20300;-67
2021/03/25 02:47:05;;;;;;;47.13;33.97;;;6.70;85.60;;;;;;5152919;27;20296;-67
2021/03/25 02:49:41;;;;;;;44.87;32.70;;;6.60;85.90;;;;;;5152961;27;20062;-67
2021/03/25 02:52:30;;;;;;;44.07;32.47;;;6.60;85.90;;;;;;5152587;27;20299;-67
2021/03/25 02:54:57;;;;;;;49.53;33.60;;;6.70;86.10;;;;;;5156570;27;20421;-66
2021/03/25 02:57:42;;;;;;;43.50;31.80;;;6.70;86.00;;;;;;5156598;27;20307;-67
2021/03/25 03:00:17;;;;;;;50.73;33.93;;;6.70;86.00;;;;;;5156829;27;20296;-67
2021/03/25 03:02:51;;;;;;;50.00;33.40;;;6.70;85.90;;;;;;5156076;27;20310;-67
2021/03/25 03:05:24;;;;;;;48.33;32.23;;;6.70;86.10;;;;;;5156002;27;20857;-67
2021/03/25 03:08:12;;;;;;;46.27;33.30;;;6.70;86.00;;;;;;5156719;27;20301;-67
2021/03/25 03:10:43;;;;;;;51.17;33.47;;;6.80;86.20;;;;;;5156854;27;20329;-67
2021/03/25 03:13:13;;;;;;;48.72;33.28;;;6.80;86.00;;;;;;5156154;27;20304;-67
2021/03/25 03:15:50;;;;;;;50.73;33.93;;;6.70;85.90;;;;;;5156019;27;20141;-67
2021/03/25 03:18:30;;;;;;;61.97;35.43;;;6.80;86.00;;;;;;5156312;27;20300;-67
2021/03/25 03:21:05;;;;;;;52.53;34.50;;;6.80;85.90;;;;;;5156453;27;20292;-67
2021/03/25 03:23:32;;;;;;;52.70;34.90;;;6.80;85.90;;;;;;5156001;27;20287;-67
2021/03/25 03:26:04;;;;;;;52.43;34.13;;;6.70;85.80;;;;;;5156091;27;20698;-67
2021/03/25 03:28:45;;;;;;;49.90;33.23;;;6.70;85.70;;;;;;5156655;27;20288;-67
2021/03/25 03:31:17;;;;;;;49.20;32.43;;;6.70;85.70;;;;;;5155648;27;20361;-67
2021/03/25 03:33:48;;;;;;;54.03;34.87;;;6.70;85.80;;;;;;5155823;27;20300;-67
2021/03/25 03:36:18;;;;;;;53.70;33.10;;;6.60;85.70;;;;;;5156003;27;20336;-67
2021/03/25 03:38:50;;;;;;;53.57;33.03;;;6.60;85.80;;;;;;5156022;27;20072;-67
2021/03/25 03:41:18;;;;;;;;;;;6.50;86.00;;;;;;5156264;27;20304;-67
2021/03/25 03:43:45;;;;;;;48.80;33.67;;;6.50;86.10;;;;;;5155423;27;19919;-66
2021/03/25 03:46:20;;;;;;;51.23;33.50;;;6.50;85.90;;;;;;5155851;27;20668;-67
2021/03/25 03:49:09;;;;;;;48.57;33.70;;;6.50;85.90;;;;;;5155672;27;20299;-67
2021/03/25 03:51:46;;;;;;;50.83;34.37;;;6.50;85.70;;;;;;5154677;27;20382;-67
2021/03/25 03:54:13;;;;;;;51.00;34.57;;;6.50;86.00;;;;;;5155461;27;20307;-67
2021/03/25 03:56:57;;;;;;;50.50;35.03;;;6.40;86.00;;;;;;5155603;27;20288;-67
2021/03/25 04:00:06;;;;;;;53.73;34.93;;;6.40;86.00;;;;;;5155285;27;20303;-68
2021/03/25 04:02:42;;;;;;;49.30;32.67;;;6.40;86.00;;;;;;5155656;27;20304;-67
2021/03/25 04:05:22;;;;;;;54.20;34.10;;;6.40;85.90;;;;;;5153496;27;20807;-67
2021/03/25 04:07:57;;;;;;;55.97;36.40;;;6.40;86.00;;;;;;5155283;27;20288;-68
2021/03/25 04:10:32;;;;;;;49.57;32.60;;;6.40;85.90;;;;;;5155497;27;20360;-67
2021/03/25 04:13:01;;;;;;;56.90;34.47;;;6.40;86.00;;;;;;5154820;27;20318;-67
2021/03/25 04:15:30;;;;;;;54.60;35.67;;;6.40;86.00;;;;;;5155309;27;20651;-67
2021/03/25 04:18:19;;;;;;;55.53;36.53;;;6.40;86.20;;;;;;5155057;27;20312;-67
2021/03/25 04:20:50;;;;;;;59.10;37.17;;;6.50;86.20;;;;;;5154827;27;20296;-68
2021/03/25 04:23:19;;;;;;;56.50;36.57;;;6.40;85.90;;;;;;5154923;27;20764;-67
2021/03/25 04:26:14;;;;;;;49.37;32.57;;;6.50;85.90;;;;;;5154432;27;20675;-67
2021/03/25 04:28:58;;;;;;;51.53;35.33;;;6.50;86.10;;;;;;5155033;27;20319;-67
2021/03/25 04:31:28;;;;;;;52.70;35.23;;;6.50;85.90;;;;;;5155078;27;20371;-68
2021/03/25 04:33:55;;;;;;;48.67;35.20;;;6.50;85.90;;;;;;5154389;27;20288;-67
2021/03/25 04:36:24;;;;;;;46.60;30.90;;;6.50;85.90;;;;;;5154546;27;20296;-67
2021/03/25 04:38:50;;;;;;;50.17;35.40;;;6.50;85.90;;;;;;5154755;27;20637;-67
2021/03/25 04:41:17;;;;;;;59.60;36.63;;;6.50;86.00;;;;;;5154366;27;20303;-68
2021/03/25 04:43:45;;;;;;;59.07;37.03;;;6.50;85.90;;;;;;5154580;27;20046;-67
2021/03/25 04:46:48;;;;;;;63.00;38.30;;;6.50;86.00;;;;;;5154581;27;20403;-68
2021/03/25 04:49:36;;;;;;;55.90;39.07;;;6.50;85.90;;;;;;5154725;27;20303;-68
2021/03/25 04:52:08;;;;;;;51.30;33.37;;;6.50;85.90;;;;;;5154481;27;20288;-68
2021/03/25 04:54:39;;;;;;;58.93;37.40;;;6.50;86.00;;;;;;5154480;27;20292;-67
2021/03/25 04:57:33;;;;;;;60.77;37.80;;;6.40;85.90;;;;;;5154236;27;20299;-68
2021/03/25 05:00:06;;;;;;;57.13;36.77;;;6.40;86.00;;;;;;5154371;27;20775;-67
2021/03/25 05:02:34;;;;;;;57.40;37.97;;;6.40;86.00;;;;;;5154243;27;20284;-68
2021/03/25 05:05:01;;;;;;;57.27;37.53;;;6.40;86.10;;;;;;5153925;27;20668;-68
2021/03/25 05:07:30;;;;;;;58.53;37.27;;;6.40;86.00;;;;;;5154421;27;20848;-67
2021/03/25 05:09:56;;;;;;;56.90;37.47;;;6.40;86.90;;;;;;5153565;27;20594;-67
2021/03/25 05:12:23;;;;;;;56.00;37.57;;;6.40;86.10;;;;;;5154103;27;20435;-67
2021/03/25 05:14:52;;;;;;;49.93;32.93;;;6.40;86.10;;;;;;5153787;27;20299;-67
2021/03/25 05:17:32;;;;;;;57.73;38.30;;;6.40;86.10;;;;;;5153946;27;20299;-68
2021/03/25 05:19:57;;;;;;;64.87;37.97;;;6.40;86.20;;;;;;5154034;27;20295;-68
2021/03/25 05:22:42;;;;;;;57.40;36.70;;;6.50;86.20;;;;;;5153362;27;20788;-68
2021/03/25 05:25:36;;;;;;;56.07;35.37;;;6.50;86.20;;;;;;5153725;27;20352;-67
2021/03/25 05:28:16;;;;;;;63.23;38.47;;;6.50;86.10;;;;;;5153532;27;20296;-69
2021/03/25 05:30:46;;;;;;;58.97;36.40;;;6.40;86.10;;;;;;5153203;27;20300;-67
2021/03/25 05:33:16;;;;;;;55.10;37.93;;;6.40;86.30;;;;;;5153573;27;20320;-67
2021/03/25 05:36:02;;;;;;;60.93;37.87;;;6.30;86.30;;;;;;5153840;27;20300;-67
2021/03/25 05:38:28;;;;;;;64.20;37.27;;;6.30;86.60;;;;;;5153960;27;20292;-67
2021/03/25 05:41:08;;;;;;;58.57;36.73;;;6.30;86.70;;;;;;5153336;27;20319;-67
2021/03/25 05:44:14;;;;;;;61.67;37.70;;;6.30;86.60;;;;;;5153457;27;20125;-68
2021/03/25 05:46:49;;;;;;;62.43;35.87;;;6.30;86.70;;;;;;5153239;27;20292;-68
2021/03/25 05:49:28;;;;;;;69.17;40.00;;;6.30;86.70;;;;;;5153393;27;20292;-67
2021/03/25 05:52:27;;;;;;;61.03;37.33;;;6.30;86.80;;;;;;5153034;27;20364;-67
2021/03/25 05:55:03;;;;;;;55.97;33.63;;;6.20;86.90;;;;;;5153209;27;20375;-67
2021/03/25 05:57:35;;;;;;;60.77;36.37;;;6.20;86.80;;;;;;5153137;27;20320;-68
2021/03/25 06:00:10;;;;;;;61.97;35.77;;;6.30;86.90;;;;;;5153147;27;20389;-67
2021/03/25 06:02:48;;;;;;;61.97;38.27;;;6.30;86.80;;;;;;5153624;27;20405;-67
2021/03/25 06:05:15;;;;;;;57.63;38.27;;;6.40;86.80;;;;;;5152507;27;20398;-67
2021/03/25 06:08:06;;;;;;;65.13;40.30;;;6.40;86.70;;;;;;5152929;27;20764;-67
2021/03/25 06:10:57;;;;;;;61.28;37.10;;;6.40;86.90;;;;;;5153506;27;20341;-67
2021/03/25 06:13:51;;;;;;;67.27;38.77;;;6.40;86.90;;;;;;5152551;27;20043;-67
2021/03/25 06:16:43;;;;;;;71.13;41.77;;;6.40;86.90;;;;;;5152899;27;20296;-67
2021/03/25 06:19:46;;;;;;;63.88;40.90;;;6.60;87.10;;;;;;5152420;27;20300;-67
2021/03/25 06:22:21;;;;;;;62.70;39.80;;;6.70;86.90;;;;;;5152742;27;20075;-67
2021/03/25 06:25:04;;;;;;;61.83;39.27;;;6.70;86.60;;;;;;5152715;27;20304;-68
2021/03/25 06:27:54;;;;;;;66.47;40.37;;;6.80;86.50;;;;;;5152316;27;20300;-68
2021/03/25 06:30:24;;;;;;;59.73;38.27;;;7.00;86.50;;;;;;5152751;27;20637;-68
2021/03/25 06:33:17;;;;;;;70.07;41.60;;;7.00;86.20;;;;;;5152127;27;20296;-68
2021/03/25 06:35:49;;;;;;;61.17;41.10;;;7.20;86.20;;;;;;5152728;27;20298;-67
2021/03/25 06:38:28;;;;;;;64.85;41.58;;;7.40;86.10;;;;;;5152700;27;20292;-68
2021/03/25 06:41:12;;;;;;;67.60;41.80;;;7.60;85.60;;;;;;5151983;27;20065;-67
2021/03/25 06:44:01;;;;;;;66.73;42.97;;;7.80;85.20;;;;;;5152295;27;20300;-68
2021/03/25 06:46:42;;;;;;;67.40;42.07;;;8.00;84.60;;;;;;5131756;28;20304;-68
2021/03/25 06:49:20;;;;;;;63.80;42.13;;;8.10;84.30;;;;;;5131600;28;20293;-68
2021/03/25 06:51:46;;;;;;;61.17;39.47;;;8.20;84.30;;;;;;5131568;28;20296;-68
2021/03/25 06:54:25;;;;;;;63.67;42.40;;;8.20;83.90;;;;;;5131124;28;20704;-68
2021/03/25 06:56:52;;;;;;;63.43;38.77;;;8.40;83.70;;;;;;5131699;28;20300;-67
2021/03/25 06:59:36;;;;;;;66.27;42.77;;;8.50;83.40;;;;;;5131889;28;20690;-67
2021/03/25 07:02:25;;;;;;;66.60;43.43;;;8.60;83.10;;;;;;5131058;28;20288;-67
2021/03/25 07:04:53;;;;;;;53.40;37.90;;;8.90;82.50;;;;;;5131366;28;20392;-68
2021/03/25 07:07:28;;;;;;;67.23;44.07;;;9.00;82.10;;;;;;5131648;28;20362;-67
2021/03/25 07:09:56;;;;;;;64.43;46.30;;;9.00;81.30;;;;;;5131592;28;20387;-67
2021/03/25 07:12:26;;;;;;;56.80;39.40;;;9.10;81.20;;;;;;5131515;28;20300;-67
2021/03/25 07:14:53;;;;;;;66.50;43.37;;;9.20;80.90;;;;;;5130973;28;20796;-66
2021/03/25 07:17:46;;;;;;;63.90;43.77;;;9.40;80.50;;;;;;5131271;28;20289;-67
2021/03/25 07:20:23;;;;;;;63.97;42.27;;;9.60;79.90;;;;;;5131353;28;20831;-67
2021/03/25 07:23:10;;;;;;;64.60;43.60;;;9.70;79.30;;;;;;5130884;28;20343;-67
2021/03/25 07:25:40;;;;;;;61.53;43.03;;;9.70;78.30;;;;;;5131616;28;20316;-67
2021/03/25 07:28:16;;;;;;;69.47;43.63;;;9.70;78.60;;;;;;5131222;28;20848;-67
2021/03/25 07:30:56;;;;;;;68.17;44.60;;;9.70;78.50;;;;;;5131076;28;20055;-67
2021/03/25 07:33:25;;;;;;;60.67;41.07;;;9.70;78.40;;;;;;5131405;28;20296;-67
2021/03/25 07:35:56;;;;;;;62.70;39.17;;;9.60;78.30;;;;;;5130771;28;20568;-66
2021/03/25 07:38:29;;;;;;;64.72;41.95;;;9.60;78.50;;;;;;5131338;27;20296;-67
2021/03/25 07:41:10;;;;;;;62.87;43.90;;;9.60;78.50;;;;;;5134164;27;20393;-67
2021/03/25 07:44:26;;;;;;;55.80;40.77;;;9.60;78.30;;;;;;5134715;27;20300;-67
2021/03/25 07:47:02;;;;;;;69.20;43.43;;;9.80;78.10;;;;;;5134584;27;20769;-68
2021/03/25 07:49:37;;;;;;;60.23;44.13;;;9.90;78.10;;;;;;5135229;27;20330;-66
2021/03/25 07:52:29;;;;;;;67.73;47.77;;;10.00;77.80;;;;;;5134277;27;20296;-67
2021/03/25 07:55:19;;;;;;;66.77;44.87;;;10.00;77.60;;;;;;5134839;27;20330;-67
2021/03/25 07:57:48;;;;;;;66.07;44.97;;;10.20;77.20;;;;;;5134386;27;20511;-66
2021/03/25 08:00:18;;;;;;;63.43;45.17;;;10.40;77.10;;;;;;5134595;27;20078;-66
2021/03/25 08:02:44;;;;;;;68.40;47.40;;;10.50;76.50;;;;;;5134412;27;20296;-66
2021/03/25 08:05:12;;;;;;;69.77;47.37;;;10.60;76.00;;;;;;5133755;27;20059;-67
2021/03/25 08:07:40;;;;;;;67.13;45.07;;;10.70;75.50;;;;;;5134746;27;20301;-66
2021/03/25 08:10:16;;;;;;;61.57;40.80;;;10.80;75.30;;;;;;5134578;27;20043;-67
2021/03/25 08:12:41;;;;;;;62.87;42.77;;;11.00;75.30;;;;;;5133985;27;20039;-66
2021/03/25 08:15:26;;;;;;;65.73;45.10;;;11.30;74.70;;;;;;5133942;27;20480;-67
2021/03/25 08:18:06;;;;;;;63.37;46.10;;;11.70;73.50;;;;;;5133908;27;20062;-67
2021/03/25 08:20:53;;;;;;;72.37;49.97;;;12.00;72.20;;;;;;5134481;27;20056;-67
2021/03/25 08:23:47;;;;;;;66.87;45.90;;;12.10;72.60;;;;;;5134112;27;20043;-67
2021/03/25 08:26:51;;;;;;;63.30;45.77;;;12.10;72.00;;;;;;5133673;27;20076;-64
2021/03/25 08:29:38;;;;;;;65.47;43.30;;;12.00;71.10;;;;;;5133843;27;20492;-65
2021/03/25 08:32:13;;;;;;;65.70;43.30;;;12.00;71.80;;;;;;5133618;27;20777;-65
2021/03/25 08:34:56;;;;;;;57.10;42.00;;;12.00;71.90;;;;;;5134095;27;20473;-65
2021/03/25 08:37:42;;;;;;;56.33;41.40;;;12.20;71.40;;;;;;5133923;27;20070;-66
2021/03/25 08:40:20;;;;;;;57.73;40.20;;;12.20;70.90;;;;;;5133329;27;20050;-65
2021/03/25 08:42:51;;;;;;;54.13;35.33;;;12.20;71.00;;;;;;5133985;27;20126;-66
2021/03/25 08:45:42;;;;;;;55.10;37.78;;;12.10;70.70;;;;;;5133756;27;20051;-66
2021/03/25 08:48:15;;;;;;;63.87;42.93;;;12.10;70.80;;;;;;5132281;27;20050;-65
2021/03/25 08:50:55;;;;;;;57.10;39.33;;;12.00;70.30;;;;;;5133075;27;20047;-65
2021/03/25 08:53:31;;;;;;;61.50;40.77;;;11.90;70.60;;;;;;5133360;27;20505;-65
2021/03/25 08:56:00;;;;;;;67.60;46.63;;;11.90;70.80;;;;;;5133464;27;20085;-66
2021/03/25 08:58:36;;;;;;;59.30;41.77;;;12.30;70.70;;;;;;5133619;27;20133;-65
2021/03/25 09:01:05;;;;;;;58.87;40.17;;;12.60;69.30;;;;;;5132555;27;20047;-65
2021/03/25 09:03:48;;;;;;;59.07;39.57;;;12.60;69.10;;;;;;5133609;27;20047;-66
2021/03/25 09:06:21;;;;;;;56.70;37.40;;;12.60;68.40;;;;;;5133265;27;20061;-66
2021/03/25 09:08:54;;;;;;;57.63;38.93;;;12.50;68.60;;;;;;5132836;27;20046;-66
2021/03/25 09:11:19;;;;;;;56.20;36.73;;;12.40;68.90;;;;;;5132912;27;20055;-66
2021/03/25 09:13:50;;;;;;;51.20;35.60;;;12.30;69.10;;;;;;5133018;27;20055;-66
2021/03/25 09:16:20;;;;;;;47.20;34.65;;;12.30;69.20;;;;;;5132364;27;20043;-65
2021/03/25 09:18:48;;;;;;;47.70;34.20;;;12.30;69.10;;;;;;5133101;27;20437;-66
2021/03/25 09:21:20;;;;;;;49.73;34.97;;;12.30;69.30;;;;;;5132748;27;20730;-65
2021/03/25 09:24:01;;;;;;;42.67;30.07;;;12.30;69.30;;;;;;5133061;27;20043;-66
2021/03/25 09:26:27;;;;;;;;;;;12.30;69.10;;;;;;5133780;27;20051;-65
2021/03/25 09:28:53;;;;;;;42.70;28.37;;;12.40;69.10;;;;;;5132758;27;19972;-66
2021/03/25 09:31:20;;;;;;;50.90;32.47;;;12.40;69.30;;;;;;5132942;27;20411;-66
2021/03/25 09:33:57;;;;;;;40.93;29.60;;;12.40;68.60;;;;;;5132787;27;20058;-66
2021/03/25 09:36:32;;;;;;;47.30;31.83;;;12.50;68.00;;;;;;5132162;27;20178;-66
2021/03/25 09:38:57;;;;;;;42.97;29.83;;;12.50;67.80;;;;;;5132626;27;20054;-66
2021/03/25 09:41:29;;;;;;;46.70;33.73;;;12.60;67.80;;;;;;5132769;27;20043;-66
2021/03/25 09:46:53;;;;;;;45.10;31.07;;;12.60;67.20;;;;;;5132907;27;20092;-67
2021/03/25 09:49:28;;;;;;;40.67;29.27;;;12.60;67.00;;;;;;5132316;27;20130;-66
2021/03/25 09:52:13;;;;;;;36.83;28.60;;;12.60;66.80;;;;;;5132395;27;20043;-66
2021/03/25 09:54:43;;;;;;;40.80;28.30;;;12.70;65.50;;;;;;5132731;27;20043;-66
2021/03/25 09:57:16;;;;;;;46.90;28.67;;;12.70;65.70;;;;;;5131853;27;20043;-65
2021/03/25 09:59:54;;;;;;;34.07;26.27;;;12.80;65.30;;;;;;5132472;27;20054;-66
2021/03/25 10:02:47;;;;;;;43.67;27.10;;;12.80;65.20;;;;;;5131639;27;20531;-65
2021/03/25 10:05:30;;;;;;;41.50;27.67;;;12.90;65.00;;;;;;5131237;27;20142;-66
2021/03/25 10:08:19;;;;;;;36.00;25.97;;;12.90;65.20;;;;;;5132465;27;20058;-66
2021/03/25 10:10:52;;;;;;;41.80;30.27;;;13.00;65.60;;;;;;5131778;27;20411;-66
2021/03/25 10:13:41;;;;;;;45.03;30.57;;;13.10;65.40;;;;;;5131952;27;20491;-66
2021/03/25 10:16:28;;;;;;;40.67;29.83;;;13.30;65.00;;;;;;5131919;27;20499;-65
2021/03/25 10:18:56;;;;;;;40.87;28.43;;;13.40;64.70;;;;;;5131737;27;20055;-66
2021/03/25 10:21:52;;;;;;;38.33;27.70;;;13.50;64.30;;;;;;5132041;27;20411;-66
2021/03/25 10:24:21;;;;;;;39.40;27.03;;;13.60;63.90;;;;;;5131401;27;20594;-65
2021/03/25 10:26:49;;;;;;;36.07;26.43;;;13.70;63.80;;;;;;5131634;27;20451;-66
2021/03/25 10:29:19;;;;;;;36.43;27.00;;;13.80;63.80;;;;;;5132159;28;20043;-66
2021/03/25 10:31:50;;;;;;;45.00;30.63;;;13.90;63.60;;;;;;5131586;28;20047;-66
2021/03/25 10:34:24;;;;;;;41.00;28.50;;;14.00;63.70;;;;;;5131835;28;20069;-66
2021/03/25 10:37:13;;;;;;;36.97;26.70;;;14.00;62.60;;;;;;5131973;28;20499;-65
2021/03/25 10:39:43;;;;;;;37.77;25.70;;;14.00;62.80;;;;;;5131700;28;20043;-66
2021/03/25 10:42:24;;;;;;;37.93;27.07;;;14.10;62.70;;;;;;5131773;28;20134;-65
2021/03/25 10:44:50;;;;;;;38.50;27.90;;;14.10;62.30;;;;;;5132020;28;20047;-66
2021/03/25 10:47:30;;;;;;;33.60;24.03;;;14.10;62.40;;;;;;5131090;28;20043;-66
2021/03/25 10:50:01;;;;;;;30.83;23.70;;;14.20;62.00;;;;;;5131828;28;20475;-66
2021/03/25 10:52:37;;;;;;;39.17;24.90;;;14.20;61.20;;;;;;5131760;28;20122;-66
2021/03/25 10:55:07;;;;;;;35.17;23.30;;;14.20;61.50;;;;;;5131370;28;20357;-66
2021/03/25 10:57:34;;;;;;;29.88;23.38;;;14.20;61.30;;;;;;5132134;28;20047;-66
2021/03/25 11:00:17;;;;;;;37.43;25.40;;;14.10;61.40;;;;;;5131131;28;20596;-65
2021/03/25 11:02:45;;;;;;;33.97;25.47;;;14.00;61.30;;;;;;5131732;28;20051;-66
2021/03/25 11:05:23;;;;;;;33.37;25.67;;;14.00;61.70;;;;;;5131585;28;20047;-66
2021/03/25 11:07:55;;;;;;;32.47;25.17;;;14.10;61.80;;;;;;5131063;28;20039;-66
2021/03/25 11:10:45;;;;;;;33.75;26.50;;;14.20;62.10;;;;;;5131325;28;20051;-66
2021/03/25 11:13:11;;;;;;;36.23;27.23;;;14.40;62.00;;;;;;5130779;27;20460;-65
2021/03/25 11:15:55;;;;;;;36.53;26.30;;;14.60;61.00;;;;;;5135211;27;20089;-66
2021/03/25 11:18:45;;;;;;;34.83;26.17;;;14.70;60.60;;;;;;5135574;27;20047;-65
2021/03/25 11:21:26;;;;;;;38.20;27.30;;;14.90;60.10;;;;;;5135074;27;20397;-66
2021/03/25 11:24:25;;;;;;;35.08;25.42;;;15.00;59.40;;;;;;5135459;27;20039;-66
2021/03/25 11:26:57;;;;;;;31.87;23.30;;;15.00;58.70;;;;;;5135290;27;20401;-65
2021/03/25 11:29:31;;;;;;;32.33;23.75;;;14.90;59.60;;;;;;5134651;27;20115;-66
2021/03/25 11:32:16;;;;;;;33.60;22.60;;;15.00;59.40;;;;;;5135418;27;20043;-66
2021/03/25 11:34:43;;;;;;;30.33;21.83;;;14.90;59.00;;;;;;5134588;27;20095;-65
2021/03/25 11:37:29;;;;;;;32.10;23.57;;;14.80;59.10;;;;;;5134931;27;20100;-65
2021/03/25 11:40:09;;;;;;;32.67;22.33;;;14.80;58.90;;;;;;5135059;27;20529;-65
2021/03/25 11:42:35;;;;;;;29.13;21.00;;;14.80;58.90;;;;;;5135069;27;20111;-67
2021/03/25 11:45:02;;;;;;;30.00;22.90;;;14.90;58.90;;;;;;5134676;27;20100;-66
2021/03/25 11:47:42;;;;;;;28.50;20.67;;;15.10;58.70;;;;;;5135265;27;20499;-66
2021/03/25 11:50:19;;;;;;;28.77;21.10;;;15.30;58.30;;;;;;5134672;27;20141;-67
2021/03/25 11:52:48;;;;;;;30.97;21.20;;;15.40;58.20;;;;;;5134609;27;20537;-66
2021/03/25 11:55:42;;;;;;;28.03;20.90;;;15.50;57.70;;;;;;5134884;27;20492;-66
2021/03/25 12:42:51;;;;;;;43.83;29.90;;;13.80;63.00;;;;;;5129414;27;20398;-67
2021/03/25 12:45:39;;;;;;;34.30;28.23;;;14.60;61.70;;;;;;5129476;28;20063;-67
2021/03/25 12:48:06;;;;;;;38.30;29.10;;;14.50;61.80;;;;;;5129313;28;20051;-67
2021/03/25 12:50:32;;;;;;;43.80;30.60;;;14.40;62.20;;;;;;5129282;28;20051;-67
2021/03/25 12:52:59;;;;;;;41.80;30.10;;;14.30;62.50;;;;;;5128056;28;20574;-67
2021/03/25 12:55:25;;;;;;;39.37;31.87;;;14.30;62.70;;;;;;5129267;28;20556;-67
2021/03/25 12:57:52;;;;;;;45.20;33.03;;;14.20;63.10;;;;;;5128792;28;20820;-67
2021/03/25 13:00:33;;;;;;;43.47;33.00;;;14.20;64.20;;;;;;5128792;28;20126;-67
2021/03/25 13:02:59;;;;;;;47.87;33.60;;;14.20;65.50;;;;;;5129254;28;20052;-67
2021/03/25 13:05:25;;;;;;;44.40;33.70;;;14.30;65.80;;;;;;5128992;28;20048;-67
2021/03/25 13:07:51;;;;;;;43.60;33.33;;;14.20;66.20;;;;;;5127802;28;20071;-67
2021/03/25 13:10:20;;;;;;;42.67;34.67;;;14.20;66.40;;;;;;5129095;28;20200;-67
2021/03/25 13:12:46;;;;;;;47.33;38.37;;;14.10;67.40;;;;;;5128217;28;20048;-67
2021/03/25 13:15:12;;;;;;;49.73;35.30;;;14.00;68.00;;;;;;5128162;28;20066;-67
2021/03/25 13:17:37;;;;;;;41.40;33.00;;;13.90;68.20;;;;;;5128864;28;20043;-67
2021/03/25 13:20:06;;;;;;;43.83;32.77;;;13.90;68.20;;;;;;5127848;28;20096;-68
2021/03/25 13:22:32;;;;;;;42.67;32.03;;;14.00;68.10;;;;;;5128667;28;20092;-68
2021/03/25 13:24:57;;;;;;;44.20;32.73;;;14.10;67.80;;;;;;5128287;28;20043;-69
2021/03/25 13:27:23;;;;;;;46.20;36.13;;;14.10;67.50;;;;;;5128044;28;20502;-67
2021/03/25 13:29:49;;;;;;;45.37;35.40;;;14.00;67.80;;;;;;5128289;28;20039;-68
2021/03/25 13:32:15;;;;;;;45.83;32.33;;;13.90;67.80;;;;;;5128695;28;20082;-68
2021/03/25 13:34:40;;;;;;;48.90;36.63;;;13.80;68.10;;;;;;5127876;28;20495;-68
2021/03/25 13:37:06;;;;;;;50.60;37.97;;;13.70;69.00;;;;;;5128212;28;20096;-68
2021/03/25 13:39:32;;;;;;;49.07;37.67;;;13.60;70.40;;;;;;5128260;28;20053;-68
2021/03/25 13:41:58;;;;;;;49.03;40.73;;;13.50;72.50;;;;;;5124154;28;20396;-68
2021/03/25 13:44:23;;;;;;;47.30;37.00;;;13.40;72.30;;;;;;5114799;28;20513;-68
2021/03/25 13:46:50;;;;;;;50.03;39.60;;;13.30;72.90;;;;;;5114176;28;20056;-68
2021/03/25 13:49:16;;;;;;;53.03;43.37;;;13.30;73.40;;;;;;5114021;28;20412;-67
2021/03/25 13:51:42;;;;;;;47.03;38.97;;;13.30;73.70;;;;;;5114334;28;20073;-67
2021/03/25 13:54:08;;;;;;;50.03;41.00;;;13.30;74.00;;;;;;5114346;28;20415;-68
2021/03/25 13:56:34;;;;;;;51.60;41.20;;;13.20;73.60;;;;;;5113460;28;20555;-68
2021/03/25 13:58:59;;;;;;;48.17;39.07;;;13.20;73.70;;;;;;5114188;28;20075;-67
2021/03/25 14:01:25;;;;;;;46.50;38.90;;;13.10;73.60;;;;;;5114463;28;20549;-67
2021/03/25 14:03:50;;;;;;;50.10;38.40;;;13.10;73.70;;;;;;5113099;28;20084;-68